ETHF

Fritzlar Airport

Fritzlar, Germany
METAR ETHF 160620Z 12004KT 9999 BKN120 M03/M06 Q1013 BLU
Observed Flight Rules
Dec-16 @ 06:20 UTC (46 minutes ago) Visual Flight Rules
Wind Visibility Clouds
120° at 4 knots 10,000+ meters
  • Broken at 12,000' AGL
Temperatures Readings
Current -3°C / 27°F
Dewpoint -6°C / 21°F
Humidity 80%
Altimeter 29.91" Hg
Pressure 1013 hPa
Elevation 181
METAR ETHF 160620Z 12004KT 9999 BKN120 M03/M06 Q1013 BLU
Observed Flight Rules
Dec-16 @ 06:20 UTC
(46 minutes ago)
VFR
Wind Visibility
120° at 4 knots 10,000+ meters
Clouds
  • Broken at 12,000' AGL
Temperature Dewpoint
-3°C / 27°F -6°C / 21°F
Humidity Altimeter Pressure
80% 29.91" Hg 1013 hPa